Huvudsida
METAR-TAF:

METAR-TAF

Flygplatser :

Upington, Sydafrika

latitud: 28-24S, longitud: 021-16E, höjd: 839 m

Aktuellt väderrapport

Denna rapport gjordes för 32 minuter sedan, klockan 08:30 UTC
Vind 4 kt från ost/nordost
Temperatur 18°C
Fuktighet 34%
Tryck 1032 hPa
Sikt 10 km eller mer
Inga moln under 1 500 m eller inga cumulonimbus

METAR: FAUP 250830Z 07004KT CAVOK 18/02 Q1032 NOSIG

Tid: 11:02 (09:02 UTC)

Väderprognos

Denna rapport gjordes för 5 timmar och 2 minuter sedan, klockan 04:00 UTC
Prognos gäller från 25 kl. 06 UTC till 26 kl. 06 UTC
Vind 5 kt från ost
Sikt 10 km eller mer
Inga moln under 1 500 m eller inga cumulonimbus

TAF: FAUP 250400Z 2506/2606 09005KT CAVOK TX23/2512Z TN09/2604Z

Aktuella väderrapporter och prognoser från 4000 flygplatser (METAR- och TAF-rapporter).

De tillgängliga stationerna syns som gula och röda prickar på kartan.

För musen över prickarna för att se namnen på stationerna.

Klicka sedan för att få väderrapporter och prognoser.

För att ändra kartan: Klicka på de gröna knapparna med ett svart kors på för att zooma in; den gröna knappen med ett streck på för att zooma ut; eller på de gröna pilarna för angränsande kartor.


METAR-TAF: